createdAt,value
2023-04-08T00:00:29.174Z,8.10
2023-04-08T00:02:55.831Z,8.08
2023-04-08T00:05:22.579Z,8.05
2023-04-08T00:07:49.225Z,7.99
2023-04-08T00:10:16.399Z,7.98
2023-04-08T00:12:43.030Z,7.98
2023-04-08T00:15:10.015Z,7.97
2023-04-08T00:17:36.846Z,7.95
2023-04-08T00:20:04.098Z,7.91
2023-04-08T00:22:30.829Z,7.87
2023-04-08T00:24:58.612Z,7.86
2023-04-08T00:27:26.376Z,7.85
2023-04-08T00:29:53.068Z,7.85
2023-04-08T00:32:19.766Z,7.84
2023-04-08T00:34:46.553Z,7.82
2023-04-08T00:37:13.194Z,7.80
2023-04-08T00:39:39.844Z,7.79
2023-04-08T00:42:06.752Z,7.79
2023-04-08T00:44:33.380Z,7.80
2023-04-08T00:47:00.133Z,7.78
2023-04-08T00:49:27.154Z,7.77
2023-04-08T00:51:55.930Z,7.76
2023-04-08T00:54:23.001Z,7.74
2023-04-08T00:56:49.693Z,7.78
2023-04-08T00:59:18.146Z,7.75
2023-04-08T01:01:59.077Z,7.71
2023-04-08T01:04:49.937Z,7.71
2023-04-08T01:07:30.370Z,7.68
2023-04-08T01:10:02.466Z,7.66
2023-04-08T01:12:32.148Z,7.66
2023-04-08T01:15:09.091Z,7.67
2023-04-08T01:17:38.097Z,7.71
2023-04-08T01:20:07.494Z,7.73
2023-04-08T01:23:03.866Z,7.74
2023-04-08T01:25:32.487Z,7.75
2023-04-08T01:28:02.041Z,7.78
2023-04-08T01:30:30.992Z,7.80
2023-04-08T01:32:59.808Z,7.81
2023-04-08T01:35:27.019Z,7.83
2023-04-08T01:37:55.453Z,7.88
2023-04-08T01:40:22.309Z,7.89
2023-04-08T01:42:51.039Z,7.91
2023-04-08T01:45:18.575Z,7.93
2023-04-08T01:47:48.850Z,7.92
2023-04-08T01:50:16.760Z,7.92
2023-04-08T01:52:45.235Z,7.92
2023-04-08T01:55:12.232Z,7.93
2023-04-08T01:57:41.705Z,7.92
2023-04-08T02:00:11.256Z,7.90
2023-04-08T02:02:39.296Z,7.88
2023-04-08T02:05:06.529Z,7.87
2023-04-08T02:07:33.292Z,7.86
2023-04-08T02:10:00.188Z,7.85
2023-04-08T02:12:28.363Z,7.83
2023-04-08T02:14:55.602Z,7.83
2023-04-08T02:17:35.224Z,7.82
2023-04-08T02:20:08.667Z,7.80
2023-04-08T02:22:44.897Z,7.79
2023-04-08T02:25:16.815Z,7.76
2023-04-08T02:27:45.726Z,7.74
2023-04-08T02:30:13.495Z,7.71
2023-04-08T02:32:40.484Z,7.70
2023-04-08T02:35:08.337Z,7.69
2023-04-08T02:37:35.387Z,7.67
2023-04-08T02:40:02.059Z,7.66
2023-04-08T02:42:28.715Z,7.66
2023-04-08T02:44:55.665Z,7.70
2023-04-08T02:47:22.347Z,7.70
2023-04-08T02:49:52.513Z,7.71
2023-04-08T02:52:19.652Z,7.69
2023-04-08T02:54:46.308Z,7.67
2023-04-08T02:57:13.140Z,7.66
2023-04-08T02:59:40.990Z,7.65
2023-04-08T03:02:07.743Z,7.65
2023-04-08T03:04:34.465Z,7.66
2023-04-08T03:07:01.107Z,7.67
2023-04-08T03:09:27.793Z,7.69
2023-04-08T03:11:55.001Z,7.69
2023-04-08T03:14:22.360Z,7.69
2023-04-08T03:16:49.188Z,7.71
2023-04-08T03:19:16.258Z,7.71
2023-04-08T03:21:43.045Z,7.72
2023-04-08T03:24:09.690Z,7.71
2023-04-08T03:26:36.361Z,7.73
2023-04-08T03:29:03.028Z,7.74
2023-04-08T03:31:29.950Z,7.76
2023-04-08T03:33:56.734Z,7.75
2023-04-08T03:36:23.441Z,7.74
2023-04-08T03:38:50.415Z,7.74
2023-04-08T03:41:17.329Z,7.70
2023-04-08T03:43:44.323Z,7.68
2023-04-08T03:46:11.228Z,7.63
2023-04-08T03:48:37.919Z,7.59
2023-04-08T03:51:04.614Z,7.59
2023-04-08T03:53:31.314Z,7.57
2023-04-08T03:55:58.068Z,7.55
2023-04-08T03:58:24.709Z,7.51
2023-04-08T04:00:51.638Z,7.48
2023-04-08T04:03:18.693Z,7.45
2023-04-08T04:05:45.484Z,7.43
2023-04-08T04:08:12.269Z,7.45
2023-04-08T04:10:38.880Z,7.45
2023-04-08T04:13:05.988Z,7.45
2023-04-08T04:15:32.778Z,7.44
2023-04-08T04:17:59.457Z,7.41
2023-04-08T04:20:26.212Z,7.38
2023-04-08T04:22:52.954Z,7.37
2023-04-08T04:25:19.648Z,7.34
2023-04-08T04:27:46.254Z,7.34
2023-04-08T04:30:15.735Z,7.32
2023-04-08T04:32:43.204Z,7.30
2023-04-08T04:35:13.400Z,7.27
2023-04-08T04:37:40.024Z,7.25
2023-04-08T04:40:07.669Z,7.24
2023-04-08T04:42:34.375Z,7.22
2023-04-08T04:45:01.073Z,7.19
2023-04-08T04:47:27.687Z,7.18
2023-04-08T04:49:54.434Z,7.17
2023-04-08T04:52:21.058Z,7.15
2023-04-08T04:54:47.751Z,7.14
2023-04-08T04:57:14.615Z,7.13
2023-04-08T04:59:41.294Z,7.10
2023-04-08T05:02:08.045Z,7.07
2023-04-08T05:04:34.751Z,7.05
2023-04-08T05:07:01.443Z,7.05
2023-04-08T05:09:29.531Z,6.98
2023-04-08T05:11:56.454Z,6.97
2023-04-08T05:14:23.318Z,6.96
2023-04-08T05:16:49.910Z,6.96
2023-04-08T05:19:16.537Z,6.90
2023-04-08T05:21:43.230Z,6.90
2023-04-08T05:24:09.859Z,6.92
2023-04-08T05:26:37.843Z,6.91
2023-04-08T05:29:04.522Z,6.88
2023-04-08T05:31:31.148Z,6.89
2023-04-08T05:33:57.929Z,6.90
2023-04-08T05:36:24.659Z,6.91
2023-04-08T05:38:51.518Z,6.93
2023-04-08T05:41:18.474Z,6.93
2023-04-08T05:43:45.057Z,6.94
2023-04-08T05:46:11.759Z,6.95
2023-04-08T05:48:38.591Z,6.94
2023-04-08T05:51:05.268Z,6.92
2023-04-08T05:53:32.251Z,6.91
2023-04-08T05:55:58.939Z,6.91
2023-04-08T05:58:25.925Z,6.89
2023-04-08T06:00:52.701Z,6.90
2023-04-08T06:03:20.649Z,6.90
2023-04-08T06:05:47.622Z,6.94
2023-04-08T06:08:14.222Z,6.98
2023-04-08T06:10:40.950Z,7.05
2023-04-08T06:13:07.806Z,7.10
2023-04-08T06:15:34.501Z,7.18
2023-04-08T06:18:01.423Z,7.24
2023-04-08T06:20:28.393Z,7.27
2023-04-08T06:22:55.313Z,7.31
2023-04-08T06:25:21.965Z,7.37
2023-04-08T06:27:48.716Z,7.39
2023-04-08T06:30:16.569Z,7.45
2023-04-08T06:32:43.328Z,7.50
2023-04-08T06:35:10.104Z,7.54
2023-04-08T06:37:38.640Z,7.58
2023-04-08T06:40:06.585Z,7.62
2023-04-08T06:42:33.219Z,7.68
2023-04-08T06:44:59.908Z,7.71
2023-04-08T06:47:26.589Z,7.73
2023-04-08T06:49:54.396Z,7.76
2023-04-08T06:52:21.277Z,7.78
2023-04-08T06:54:47.915Z,7.80
2023-04-08T06:57:14.549Z,7.81
2023-04-08T06:59:41.225Z,7.83
2023-04-08T07:02:07.974Z,7.84
2023-04-08T07:04:34.751Z,7.87
2023-04-08T07:07:01.520Z,7.88
2023-04-08T07:09:28.630Z,7.89
2023-04-08T07:11:55.845Z,7.90
2023-04-08T07:14:22.548Z,7.93
2023-04-08T07:16:49.332Z,7.97
2023-04-08T07:19:16.347Z,7.98
2023-04-08T07:21:43.066Z,8.03
2023-04-08T07:24:09.789Z,8.05
2023-04-08T07:26:36.508Z,8.10
2023-04-08T07:29:03.153Z,8.14
2023-04-08T07:31:29.854Z,8.20
2023-04-08T07:33:56.742Z,8.26
2023-04-08T07:36:23.399Z,8.33
2023-04-08T07:38:50.291Z,8.40
2023-04-08T07:41:17.342Z,8.46
2023-04-08T07:43:43.959Z,8.50
2023-04-08T07:46:10.787Z,8.53
2023-04-08T07:48:37.541Z,8.56
2023-04-08T07:51:11.127Z,8.62
2023-04-08T07:53:40.613Z,8.72
2023-04-08T07:56:18.292Z,8.81
2023-04-08T07:58:46.861Z,8.89
2023-04-08T08:01:21.927Z,9.00
2023-04-08T08:03:52.994Z,9.05
2023-04-08T08:06:20.918Z,9.12
2023-04-08T08:08:47.787Z,9.21
2023-04-08T08:11:14.557Z,9.27
2023-04-08T08:13:41.320Z,9.37
2023-04-08T08:16:11.476Z,9.45
2023-04-08T08:18:40.221Z,9.53
2023-04-08T08:21:07.966Z,9.58
2023-04-08T08:23:34.658Z,9.64
2023-04-08T08:26:03.014Z,9.65
2023-04-08T08:28:29.696Z,9.71
2023-04-08T08:30:56.605Z,9.82
2023-04-08T08:33:23.310Z,9.96
2023-04-08T08:35:50.064Z,10.10
2023-04-08T08:38:17.776Z,10.22
2023-04-08T08:40:45.205Z,10.38
2023-04-08T08:43:12.254Z,10.51
2023-04-08T08:45:40.995Z,10.74
2023-04-08T08:48:10.720Z,11.11
2023-04-08T08:50:37.374Z,11.52
2023-04-08T08:53:04.276Z,11.93
2023-04-08T08:55:56.707Z,12.13
2023-04-08T08:58:20.590Z,12.05
2023-04-08T09:00:47.326Z,11.88
2023-04-08T09:03:19.372Z,11.73
2023-04-08T09:05:54.918Z,11.60
2023-04-08T09:08:37.134Z,11.52
2023-04-08T09:11:18.530Z,11.46
2023-04-08T09:13:46.374Z,11.52
2023-04-08T09:16:16.758Z,12.03
2023-04-08T09:18:46.042Z,12.62
2023-04-08T09:21:14.280Z,13.62
2023-04-08T09:23:45.953Z,14.47
2023-04-08T09:26:13.544Z,14.65
2023-04-08T09:28:41.739Z,14.67
2023-04-08T09:31:29.156Z,14.84
2023-04-08T09:34:02.436Z,15.15
2023-04-08T09:36:29.186Z,15.53
2023-04-08T09:38:56.308Z,15.57
2023-04-08T09:41:24.361Z,15.87
2023-04-08T09:43:54.312Z,16.28
2023-04-08T09:46:32.945Z,16.79
2023-04-08T09:49:07.832Z,16.80
2023-04-08T09:51:53.314Z,16.59
2023-04-08T09:54:23.246Z,16.85
2023-04-08T09:57:00.966Z,17.17
2023-04-08T09:59:34.002Z,17.47
2023-04-08T10:02:07.455Z,17.64
2023-04-08T10:04:41.820Z,17.82
2023-04-08T10:07:09.508Z,17.92
2023-04-08T10:09:38.678Z,17.97
2023-04-08T10:12:05.770Z,18.01
2023-04-08T10:14:32.691Z,17.74
2023-04-08T10:17:24.387Z,17.73
2023-04-08T10:19:51.030Z,17.72
2023-04-08T10:22:48.919Z,17.70
2023-04-08T10:25:15.641Z,17.73
2023-04-08T10:27:43.438Z,17.70
2023-04-08T10:30:43.873Z,17.68
2023-04-08T10:33:33.038Z,17.38
2023-04-08T10:36:12.087Z,16.94
2023-04-08T10:38:39.855Z,16.91
2023-04-08T10:41:06.596Z,17.12
2023-04-08T10:43:35.309Z,17.24
2023-04-08T10:46:02.600Z,17.13
2023-04-08T10:48:29.744Z,16.97
2023-04-08T10:51:06.641Z,16.77
2023-04-08T10:53:39.203Z,16.53
2023-04-08T10:56:13.280Z,16.32
2023-04-08T10:58:54.246Z,16.03
2023-04-08T11:01:21.449Z,15.29
2023-04-08T11:03:48.910Z,14.56
2023-04-08T11:06:17.581Z,14.15
2023-04-08T11:08:47.457Z,14.00
2023-04-08T11:11:14.883Z,14.01
2023-04-08T11:13:52.050Z,13.99
2023-04-08T11:16:22.075Z,13.99
2023-04-08T11:18:50.427Z,13.98
2023-04-08T11:21:17.503Z,14.00
2023-04-08T11:23:44.275Z,13.92
2023-04-08T11:26:11.784Z,13.86
2023-04-08T11:28:38.875Z,13.78
2023-04-08T11:31:06.299Z,13.73
2023-04-08T11:33:35.204Z,13.64
2023-04-08T11:36:06.330Z,13.53
2023-04-08T11:38:33.184Z,13.46
2023-04-08T11:41:00.585Z,13.35
2023-04-08T11:43:28.677Z,13.30
2023-04-08T11:45:55.858Z,13.25
2023-04-08T11:48:23.796Z,13.20
2023-04-08T11:51:03.782Z,13.12
2023-04-08T11:53:30.597Z,13.09
2023-04-08T11:55:57.693Z,13.12
2023-04-08T11:58:24.326Z,13.06
2023-04-08T12:00:51.069Z,13.02
2023-04-08T12:03:17.841Z,12.96
2023-04-08T12:05:44.605Z,12.89
2023-04-08T12:08:11.647Z,12.93
2023-04-08T12:10:38.326Z,12.97
2023-04-08T12:13:04.900Z,13.02
2023-04-08T12:15:32.881Z,13.03
2023-04-08T12:17:59.534Z,13.08
2023-04-08T12:20:26.221Z,13.17
2023-04-08T12:22:52.849Z,13.20
2023-04-08T12:25:19.564Z,13.30
2023-04-08T12:27:46.203Z,13.38
2023-04-08T12:30:15.361Z,13.43
2023-04-08T12:32:45.487Z,13.54
2023-04-08T12:35:12.164Z,13.62
2023-04-08T12:37:40.000Z,13.73
2023-04-08T12:40:08.672Z,13.87
2023-04-08T12:42:35.892Z,13.89
2023-04-08T12:45:03.897Z,13.90
2023-04-08T12:47:31.556Z,13.92
2023-04-08T12:49:58.774Z,13.92
2023-04-08T12:52:33.768Z,13.80
2023-04-08T12:55:01.252Z,13.70
2023-04-08T12:57:28.907Z,13.64
2023-04-08T12:59:56.159Z,13.65
2023-04-08T13:02:25.825Z,13.71
2023-04-08T13:04:53.753Z,13.71
2023-04-08T13:07:20.324Z,13.60
2023-04-08T13:09:46.968Z,13.44
2023-04-08T13:12:13.643Z,13.39
2023-04-08T13:14:40.755Z,13.38
2023-04-08T13:17:07.444Z,13.40
2023-04-08T13:19:34.074Z,13.43
2023-04-08T13:22:01.316Z,13.35
2023-04-08T13:24:28.430Z,13.34
2023-04-08T13:26:55.127Z,13.36
2023-04-08T13:29:21.836Z,13.39
2023-04-08T13:31:48.565Z,13.44
2023-04-08T13:34:15.796Z,13.47
2023-04-08T13:36:42.497Z,13.49
2023-04-08T13:39:09.207Z,13.44
2023-04-08T13:41:35.974Z,13.35
2023-04-08T13:44:02.642Z,13.34
2023-04-08T13:46:29.592Z,13.39
2023-04-08T13:48:56.304Z,13.44
2023-04-08T13:51:23.223Z,13.46
2023-04-08T13:53:50.093Z,13.41
2023-04-08T13:56:16.778Z,13.35
2023-04-08T13:58:44.760Z,13.32
2023-04-08T14:01:12.944Z,13.37
2023-04-08T14:03:39.626Z,13.51
2023-04-08T14:06:06.841Z,13.57
2023-04-08T14:08:33.611Z,13.56
2023-04-08T14:11:00.323Z,13.58
2023-04-08T14:13:27.061Z,13.64
2023-04-08T14:15:55.043Z,13.67
2023-04-08T14:18:21.819Z,13.76
2023-04-08T14:20:48.667Z,13.78
2023-04-08T14:23:16.972Z,13.75
2023-04-08T14:25:43.823Z,13.72
2023-04-08T14:28:10.499Z,13.68
2023-04-08T14:30:37.841Z,13.64
2023-04-08T14:33:05.497Z,13.61
2023-04-08T14:35:32.628Z,13.57
2023-04-08T14:37:59.874Z,13.59
2023-04-08T14:40:26.858Z,13.61
2023-04-08T14:42:53.965Z,13.64
2023-04-08T14:45:20.761Z,13.61
2023-04-08T14:47:47.459Z,13.54
2023-04-08T14:50:14.247Z,13.50
2023-04-08T14:52:41.155Z,13.51
2023-04-08T14:55:08.269Z,13.52
2023-04-08T14:57:34.955Z,13.52
2023-04-08T15:00:01.920Z,13.51
2023-04-08T15:02:28.620Z,13.49
2023-04-08T15:04:55.545Z,13.45
2023-04-08T15:07:22.721Z,13.46
2023-04-08T15:09:49.545Z,13.43
2023-04-08T15:12:16.178Z,13.43
2023-04-08T15:14:42.835Z,13.40
2023-04-08T15:17:10.296Z,13.35
2023-04-08T15:19:37.040Z,13.30
2023-04-08T15:22:03.781Z,13.32
2023-04-08T15:24:30.511Z,13.28
2023-04-08T15:26:57.331Z,13.28
2023-04-08T15:29:24.577Z,13.29
2023-04-08T15:31:51.405Z,13.26
2023-04-08T15:34:18.582Z,13.28
2023-04-08T15:36:45.798Z,13.26
2023-04-08T15:39:12.403Z,13.25
2023-04-08T15:41:39.184Z,13.27
2023-04-08T15:44:05.943Z,13.25
2023-04-08T15:46:33.291Z,13.20
2023-04-08T15:49:01.540Z,13.18
2023-04-08T15:51:28.742Z,13.19
2023-04-08T15:53:55.405Z,13.24
2023-04-08T15:56:23.782Z,13.26
2023-04-08T15:58:50.664Z,13.22
2023-04-08T16:01:18.759Z,13.15
2023-04-08T16:03:46.378Z,13.12
2023-04-08T16:06:13.058Z,13.10
2023-04-08T16:08:40.022Z,13.05
2023-04-08T16:11:08.086Z,13.02
2023-04-08T16:13:36.508Z,12.96
2023-04-08T16:16:03.646Z,12.94
2023-04-08T16:18:30.904Z,12.94
2023-04-08T16:20:57.862Z,13.00
2023-04-08T16:23:26.233Z,13.01
2023-04-08T16:25:52.875Z,13.07
2023-04-08T16:28:19.690Z,13.09
2023-04-08T16:30:47.961Z,13.17
2023-04-08T16:33:14.849Z,13.31
2023-04-08T16:35:41.534Z,13.38
2023-04-08T16:38:08.331Z,13.39
2023-04-08T16:40:35.226Z,13.34
2023-04-08T16:43:04.209Z,13.40
2023-04-08T16:45:32.690Z,13.46
2023-04-08T16:48:00.381Z,13.48
2023-04-08T16:50:28.562Z,13.45
2023-04-08T16:52:55.829Z,13.40
2023-04-08T16:55:22.618Z,13.36
2023-04-08T16:57:49.388Z,13.36
2023-04-08T17:00:18.694Z,13.30
2023-04-08T17:02:47.602Z,13.25
2023-04-08T17:05:14.474Z,13.22
2023-04-08T17:07:41.265Z,13.19
2023-04-08T17:10:08.581Z,13.12
2023-04-08T17:12:36.367Z,13.07
2023-04-08T17:15:04.734Z,13.04
2023-04-08T17:17:31.435Z,13.00
2023-04-08T17:24:00.444Z,12.93
2023-04-08T17:26:28.356Z,12.91
2023-04-08T17:28:55.047Z,12.86
2023-04-08T17:31:21.804Z,12.78
2023-04-08T17:33:48.694Z,12.72
2023-04-08T17:36:17.491Z,12.63
2023-04-08T17:38:44.338Z,12.52
2023-04-08T17:41:13.411Z,12.47
2023-04-08T17:43:43.097Z,12.40
2023-04-08T17:46:09.722Z,12.37
2023-04-08T17:48:36.590Z,12.32
2023-04-08T17:51:05.651Z,12.26
2023-04-08T17:53:34.037Z,12.22
2023-04-08T17:56:01.458Z,12.29
2023-04-08T17:58:28.353Z,12.42
2023-04-08T18:00:55.070Z,12.56
2023-04-08T18:03:21.940Z,12.62
2023-04-08T18:05:48.983Z,12.61
2023-04-08T18:08:15.666Z,12.53
2023-04-08T18:10:43.490Z,12.48
2023-04-08T18:13:11.665Z,12.44
2023-04-08T18:15:39.284Z,12.40
2023-04-08T18:18:05.973Z,12.30
2023-04-08T18:20:38.469Z,12.22
2023-04-08T18:23:05.179Z,12.12
2023-04-08T18:25:32.634Z,12.07
2023-04-08T18:27:59.589Z,12.04
2023-04-08T18:30:27.618Z,11.99
2023-04-08T18:32:54.400Z,11.91
2023-04-08T18:35:21.258Z,11.84
2023-04-08T18:37:48.154Z,11.80
2023-04-08T18:40:15.479Z,11.74
2023-04-08T18:42:42.097Z,11.67
2023-04-08T18:45:08.832Z,11.59
2023-04-08T18:47:35.665Z,11.53
2023-04-08T18:50:05.191Z,11.48
2023-04-08T18:52:32.331Z,11.40
2023-04-08T18:55:02.785Z,11.35
2023-04-08T18:57:29.767Z,11.28
2023-04-08T18:59:56.492Z,11.20
2023-04-08T19:02:24.196Z,11.14
2023-04-08T19:04:50.949Z,11.10
2023-04-08T19:07:18.076Z,11.05
2023-04-08T19:09:44.748Z,10.99
2023-04-08T19:12:11.524Z,10.94
2023-04-08T19:14:38.335Z,10.93
2023-04-08T19:17:05.360Z,10.87
2023-04-08T19:19:32.729Z,10.83
2023-04-08T19:22:02.709Z,10.81
2023-04-08T19:24:29.386Z,10.79
2023-04-08T19:26:56.147Z,10.76
2023-04-08T19:29:23.488Z,10.74
2023-04-08T19:31:50.414Z,10.74
2023-04-08T19:34:17.111Z,10.70
2023-04-08T19:36:43.832Z,10.69
2023-04-08T19:39:10.440Z,10.67
2023-04-08T19:41:37.105Z,10.67
2023-04-08T19:44:05.019Z,10.67
2023-04-08T19:46:32.769Z,10.65
2023-04-08T19:48:59.718Z,10.64
2023-04-08T19:51:27.480Z,10.62
2023-04-08T19:53:54.268Z,10.62
2023-04-08T19:56:21.708Z,10.61
2023-04-08T19:58:49.714Z,10.60
2023-04-08T20:01:16.970Z,10.57
2023-04-08T20:03:52.881Z,10.54
2023-04-08T20:06:20.266Z,10.52
2023-04-08T20:08:47.150Z,10.54
2023-04-08T20:11:14.022Z,10.52
2023-04-08T20:13:40.931Z,10.49
2023-04-08T20:16:07.823Z,10.48
2023-04-08T20:18:34.588Z,10.47
2023-04-08T20:21:01.292Z,10.48
2023-04-08T20:23:28.560Z,10.46
2023-04-08T20:25:55.232Z,10.45
2023-04-08T20:28:21.996Z,10.44
2023-04-08T20:30:48.612Z,10.42
2023-04-08T20:33:15.493Z,10.42
2023-04-08T20:35:42.492Z,10.39
2023-04-08T20:38:09.788Z,10.36
2023-04-08T20:40:36.545Z,10.37
2023-04-08T20:43:03.309Z,10.35
2023-04-08T20:45:30.784Z,10.33
2023-04-08T20:47:57.539Z,10.31
2023-04-08T20:50:24.733Z,10.29
2023-04-08T20:52:51.758Z,10.28
2023-04-08T20:55:18.541Z,10.29
2023-04-08T20:57:45.592Z,10.27
2023-04-08T21:00:13.760Z,10.27
2023-04-08T21:02:40.813Z,10.26
2023-04-08T21:05:07.870Z,10.25
2023-04-08T21:07:35.006Z,10.23
2023-04-08T21:10:01.674Z,10.22
2023-04-08T21:12:28.305Z,10.20
2023-04-08T21:14:54.930Z,10.17
2023-04-08T21:17:21.580Z,10.14
2023-04-08T21:19:48.194Z,10.14
2023-04-08T21:22:16.591Z,10.11
2023-04-08T21:24:43.320Z,10.10
2023-04-08T21:27:09.989Z,10.09
2023-04-08T21:29:36.668Z,10.10
2023-04-08T21:32:03.423Z,10.08
2023-04-08T21:34:30.120Z,10.05
2023-04-08T21:36:56.838Z,10.06
2023-04-08T21:39:23.443Z,10.03
2023-04-08T21:41:50.182Z,10.06
2023-04-08T21:44:16.925Z,10.03
2023-04-08T21:46:43.594Z,10.02
2023-04-08T21:49:11.392Z,10.02
2023-04-08T21:51:39.284Z,10.01
2023-04-08T21:54:05.987Z,10.01
2023-04-08T21:56:32.704Z,10.00
2023-04-08T21:58:59.371Z,10.00
2023-04-08T22:01:26.671Z,10.00
2023-04-08T22:03:55.560Z,9.99
2023-04-08T22:06:31.612Z,9.97
2023-04-08T22:08:59.088Z,9.95
2023-04-08T22:11:25.705Z,9.92
2023-04-08T22:13:52.448Z,9.89
2023-04-08T22:16:19.132Z,9.85
2023-04-08T22:18:46.645Z,9.82
2023-04-08T22:21:13.588Z,9.79
2023-04-08T22:23:40.784Z,9.80
2023-04-08T22:26:07.443Z,9.81
2023-04-08T22:28:34.503Z,9.82
2023-04-08T22:31:01.472Z,9.85
2023-04-08T22:33:28.224Z,9.85
2023-04-08T22:35:57.451Z,9.87
2023-04-08T22:38:24.311Z,9.87
2023-04-08T22:40:51.187Z,9.88
2023-04-08T22:43:17.844Z,9.88
2023-04-08T22:45:44.543Z,9.89
2023-04-08T22:48:11.571Z,9.89
2023-04-08T22:50:38.313Z,9.89
2023-04-08T22:53:05.240Z,9.90
2023-04-08T22:55:32.317Z,9.89
2023-04-08T22:57:58.975Z,9.91
2023-04-08T23:00:25.933Z,9.92
2023-04-08T23:02:54.453Z,9.92
2023-04-08T23:05:21.561Z,9.92
2023-04-08T23:07:49.343Z,9.91
2023-04-08T23:10:16.234Z,9.88
2023-04-08T23:12:42.917Z,9.85
2023-04-08T23:15:09.952Z,9.85
2023-04-08T23:17:36.704Z,9.83
2023-04-08T23:20:03.508Z,9.82
2023-04-08T23:22:30.227Z,9.80
2023-04-08T23:24:56.899Z,9.79
2023-04-08T23:27:23.610Z,9.77
2023-04-08T23:29:50.296Z,9.72
2023-04-08T23:32:16.987Z,9.71
2023-04-08T23:34:43.699Z,9.68
2023-04-08T23:37:10.334Z,9.65
2023-04-08T23:39:36.985Z,9.63
2023-04-08T23:42:03.769Z,9.61
2023-04-08T23:44:30.487Z,9.58
2023-04-08T23:46:57.117Z,9.57
2023-04-08T23:49:23.814Z,9.53
2023-04-08T23:51:53.623Z,9.49
2023-04-08T23:54:20.365Z,9.46
2023-04-08T23:56:46.962Z,9.43
2023-04-08T23:59:13.593Z,9.39
